Terminal Aerodrome Forecast
Issued by NWS

Home | Current Version | Previous Version | Text Only | Print | Product List | Glossary On
Versions: 1 2 3 4 5 6 7 8 9 10 11 12 13 14 15 16 17 18 19
207
FTUS43 KMQT 261951 AAA
TAFIWD
TAF AMD
KIWD 261951Z 2620/2718 26008KT P6SM SCT080
     FM262300 31006KT P6SM VCTS BKN060CB
     FM270200 21003KT P6SM SCT120
     FM270600 24003KT P6SM VCSH SCT070
     FM271200 00000KT P6SM BKN090
     FM271400 06004KT P6SM BKN110
      AMD LTD TO CLD VIS AND WIND=

USA.gov is the U.S. government's official web portal to all federal, state and local government web resources and services.